Paynesville, MN

2:24 AM CDT on April 30, 2017 (GMT -0500)
Paynesville

Weather History for KPEX - November, 2012

Change the Weather History Date:

Monday, November 5, 2012

  Actual Average (KLJF) Record (KLJF)
Temperature  
Mean Temperature 36 °F -  
Max Temperature 39 °F 44 °F 74 °F (1975)
Min Temperature 32 °F 28 °F 0 °F (1951)
Degree Days  
Heating Degree Days 30    
Moisture  
Dew Point 34 °F    
Average Humidity 96    
Maximum Humidity 99    
Minimum Humidity 93    
Precipitation  
Precipitation 0.02 in - - ()
Sea Level Pressure  
Sea Level Pressure 30.10 in    
Wind  
Wind Speed 7 mph (ESE)    
Max Wind Speed 12 mph    
Max Gust Speed 18 mph    
Visibility 5 miles    
Events Rain , Snow    
Averages and records for this station are not official NWS values.
T = Trace of Precipitation, MM = Missing Value Source: NWS Daily Summary

Daily Weather History Graph

Daily Weather History Graph

Search for Another Location

Airport or City:

Trip Planner

Search our weather history database for the weather conditions in past years. The results will help you decide how hot, cold, wet, or windy it might be!

Date:

Astronomy

Nov. 05, 2012 Rise Set
Actual Time 7:04 AM CST 5:00 PM CST
Civil Twilight 6:33 AM CST 5:31 PM CST
Nautical Twilight 5:58 AM CST 6:06 PM CST
Astronomical Twilight 5:23 AM CST 6:40 PM CST
Moon 10:39 PM CST (11/5) 12:24 PM CST (11/5)
Length of Visible Light 10h 57m
Length of Day
9h 55m
Waning Gibbous, 62% of the Moon is Illuminated
Nov 5
Waning Gibbous
Nov 6
Last Quarter
Nov 13
New
Nov 20
First Quarter
Nov 28
Full

Hourly Weather History & Observations

Time (CST) Temp. Windchill Dew Point Humidity Pressure Visibility Wind Dir Wind Speed Gust Speed Precip Events Conditions
12:13 AM 35.1 °F 28.6 °F 33.8 °F 95% 30.16 in 4.0 mi NE 8.1 mph - N/A Rain Light Rain
12:33 AM 34.9 °F 28.3 °F 33.8 °F 96% 30.16 in 7.0 mi NNE 8.1 mph - N/A   Light Drizzle
12:54 AM 34.0 °F 26.6 °F 32.7 °F 95% 30.16 in 7.0 mi NNE 9.2 mph - N/A   Overcast
1:13 AM 33.8 °F 27.0 °F 32.2 °F 94% 30.16 in 10.0 mi NNE 8.1 mph - N/A   Overcast
1:34 AM 33.4 °F 25.9 °F 32.0 °F 94% 30.16 in 10.0 mi NE 9.2 mph - N/A   Overcast
1:53 AM 33.4 °F 27.3 °F 32.0 °F 94% 30.16 in 10.0 mi NNE 6.9 mph - N/A   Overcast
2:13 AM 33.3 °F 26.4 °F 32.0 °F 95% 30.16 in 7.0 mi NE 8.1 mph - N/A   Overcast
2:34 AM 33.1 °F 26.1 °F 32.0 °F 96% 30.16 in 10.0 mi NE 8.1 mph - N/A   Overcast
2:53 AM 32.9 °F 25.9 °F 32.0 °F 96% 30.16 in 10.0 mi NE 8.1 mph - N/A   Overcast
3:13 AM 33.1 °F 26.9 °F 31.8 °F 95% 30.16 in 10.0 mi NNE 6.9 mph - N/A   Overcast
3:33 AM 32.9 °F 27.5 °F 31.6 °F 95% 30.16 in 10.0 mi NNE 5.8 mph - N/A   Overcast
3:53 AM 32.9 °F 26.7 °F 31.5 °F 94% 30.16 in 10.0 mi NE 6.9 mph - N/A   Overcast
4:13 AM 32.9 °F 26.7 °F 31.3 °F 94% 30.16 in 10.0 mi NE 6.9 mph - N/A   Overcast
4:33 AM 32.9 °F 25.9 °F 31.1 °F 93% 30.16 in 10.0 mi NE 8.1 mph - N/A   Overcast
4:53 AM 32.9 °F 25.3 °F 31.1 °F 93% 30.17 in 10.0 mi NE 9.2 mph - N/A   Overcast
5:13 AM 32.9 °F 27.5 °F 31.1 °F 93% 30.17 in 7.0 mi NE 5.8 mph - N/A   Overcast
5:33 AM 32.5 °F 26.2 °F 31.5 °F 96% 30.17 in 7.0 mi NE 6.9 mph - N/A   Overcast
5:54 AM 32.5 °F 28.1 °F 31.6 °F 96% 30.17 in 5.0 mi NE 4.6 mph - N/A   Overcast
6:13 AM 32.4 °F 27.9 °F 31.6 °F 97% 30.17 in 5.0 mi NE 4.6 mph - N/A   Overcast
6:33 AM 32.4 °F 26.9 °F 31.6 °F 97% 30.17 in 5.0 mi NE 5.8 mph - N/A   Overcast
6:53 AM 32.5 °F 27.1 °F 31.8 °F 97% 30.18 in 4.0 mi NE 5.8 mph - N/A   Overcast
7:13 AM 32.4 °F 27.9 °F 32.0 °F 99% 30.17 in 4.0 mi NE 4.6 mph - N/A Snow Light Snow
7:33 AM 32.4 °F 26.9 °F 31.8 °F 98% 30.17 in 3.0 mi ENE 5.8 mph - N/A   Overcast
7:53 AM 32.4 °F 27.9 °F 31.8 °F 98% 30.18 in 2.0 mi ENE 4.6 mph - N/A Snow Light Snow
8:13 AM 32.4 °F 26.0 °F 32.0 °F 99% 30.18 in 2.0 mi ENE 6.9 mph - N/A   Overcast
8:33 AM 32.5 °F 28.1 °F 32.0 °F 98% 30.18 in 2.5 mi ENE 4.6 mph - N/A Snow Light Snow
8:53 AM 32.5 °F 26.2 °F 32.0 °F 98% 30.18 in 1.8 mi ENE 6.9 mph - N/A   Overcast
9:13 AM 32.5 °F 27.1 °F 32.0 °F 98% 30.18 in 2.5 mi ENE 5.8 mph - N/A Snow Light Snow
9:33 AM 32.9 °F 26.7 °F 32.0 °F 96% 30.18 in 2.0 mi ENE 6.9 mph - N/A   Overcast
9:54 AM 32.9 °F 27.5 °F 32.0 °F 96% 30.18 in 3.0 mi ENE 5.8 mph - N/A   Overcast
10:13 AM 32.9 °F 28.5 °F 32.0 °F 96% 30.18 in 4.0 mi NE 4.6 mph - N/A   Overcast
10:34 AM 33.3 °F 28.9 °F 32.2 °F 96% 30.18 in 5.0 mi East 4.6 mph - N/A   Overcast
10:53 AM 33.6 °F - 32.4 °F 95% 30.18 in 4.0 mi Calm Calm - N/A   Overcast
11:13 AM 33.8 °F 29.6 °F 32.9 °F 96% 30.17 in 2.0 mi East 4.6 mph - N/A   Overcast
11:33 AM 34.2 °F 30.0 °F 33.3 °F 97% 30.16 in 1.8 mi East 4.6 mph - N/A   Overcast
11:53 AM 34.5 °F - 33.8 °F 97% 30.16 in 1.5 mi Calm Calm - N/A   Overcast
12:13 PM 34.7 °F 31.8 °F 34.0 °F 97% 30.15 in 1.5 mi East 3.5 mph - N/A   Overcast
12:33 PM 35.1 °F 32.2 °F 34.3 °F 97% 30.15 in 1.2 mi East 3.5 mph - N/A   Overcast
12:53 PM 35.6 °F - 34.7 °F 97% 30.14 in 1.2 mi Calm Calm - N/A   Overcast
1:13 PM 35.6 °F 31.7 °F 34.9 °F 97% 30.13 in 1.0 mi East 4.6 mph - N/A   Overcast
1:34 PM 36.5 °F 31.8 °F 35.8 °F 97% 30.11 in 1.0 mi ESE 5.8 mph - N/A   Overcast
1:53 PM 36.9 °F 30.7 °F 36.3 °F 98% 30.10 in 0.8 mi ESE 8.1 mph - N/A   Overcast
2:13 PM 37.0 °F 32.4 °F 36.5 °F 98% 30.09 in 1.2 mi ESE 5.8 mph - N/A   Overcast
2:34 PM 37.4 °F 32.1 °F 36.7 °F 97% 30.09 in 1.2 mi ESE 6.9 mph - N/A   Overcast
2:53 PM 37.6 °F 34.0 °F 36.9 °F 97% 30.09 in 0.8 mi ESE 4.6 mph - N/A   Overcast
3:13 PM 37.8 °F 32.5 °F 37.2 °F 98% 30.08 in 1.0 mi SE 6.9 mph - N/A   Overcast
3:53 PM 38.3 °F 34.8 °F 37.8 °F 98% 30.06 in 1.0 mi SE 4.6 mph - N/A   Light Drizzle
4:13 PM 38.7 °F 35.2 °F 38.1 °F 98% 30.06 in 1.5 mi SSE 4.6 mph - N/A   Overcast
4:33 PM 39.2 °F 35.0 °F 38.5 °F 97% 30.05 in 2.5 mi South 5.8 mph - N/A   Overcast
4:54 PM 39.2 °F 33.6 °F 38.3 °F 97% 30.04 in 3.0 mi South 8.1 mph - N/A   Overcast
5:13 PM 38.8 °F 33.2 °F 37.9 °F 97% 30.04 in 5.0 mi South 8.1 mph - N/A   Overcast
5:33 PM 38.5 °F 32.1 °F 37.4 °F 96% 30.05 in 7.0 mi South 9.2 mph 17.3 mph N/A   Overcast
5:54 PM 38.3 °F 30.9 °F 36.9 °F 95% 30.05 in 5.0 mi SSW 11.5 mph - N/A   Overcast
6:13 PM 37.8 °F 30.2 °F 36.5 °F 95% 30.04 in 5.0 mi SSW 11.5 mph - N/A   Overcast
6:33 PM 37.4 °F 30.3 °F 36.1 °F 95% 30.04 in 5.0 mi SSW 10.4 mph - N/A   Overcast
6:54 PM 36.7 °F 30.5 °F 35.8 °F 97% 30.03 in 4.0 mi SSW 8.1 mph - N/A   Overcast
7:13 PM 36.5 °F 30.3 °F 35.6 °F 97% 30.03 in 4.0 mi SSW 8.1 mph - N/A   Overcast
7:34 PM 36.5 °F 30.3 °F 35.6 °F 97% 30.01 in 5.0 mi SSW 8.1 mph - N/A   Overcast
7:53 PM 36.5 °F 30.3 °F 35.2 °F 95% 30.00 in 4.0 mi South 8.1 mph - N/A   Overcast
8:13 PM 36.1 °F 30.6 °F 35.2 °F 97% 29.99 in 5.0 mi South 6.9 mph - N/A   Overcast
8:33 PM 36.1 °F 31.4 °F 35.2 °F 97% 29.98 in 5.0 mi South 5.8 mph - N/A   Overcast
8:53 PM 36.1 °F 31.4 °F 35.2 °F 97% 29.97 in 4.0 mi South 5.8 mph - N/A   Overcast
9:14 PM 36.1 °F 30.6 °F 35.1 °F 96% 29.96 in 5.0 mi South 6.9 mph - N/A   Overcast
9:33 PM 36.5 °F 31.0 °F 35.2 °F 95% 29.95 in 5.0 mi South 6.9 mph - N/A   Mostly Cloudy
9:53 PM 36.5 °F 31.0 °F 35.6 °F 97% 29.94 in 5.0 mi South 6.9 mph - N/A   Overcast
10:14 PM 36.7 °F 29.9 °F 35.6 °F 96% 29.93 in 5.0 mi South 9.2 mph - N/A   Overcast
10:33 PM 36.9 °F 31.4 °F 35.6 °F 95% 29.92 in 5.0 mi South 6.9 mph - N/A   Overcast
10:54 PM 37.0 °F 31.0 °F 35.6 °F 95% 29.92 in 5.0 mi South 8.1 mph - N/A   Overcast
11:13 PM 37.0 °F 31.0 °F 35.6 °F 95% 29.91 in 4.0 mi SSW 8.1 mph - N/A Rain Rain
11:33 PM 37.0 °F 29.8 °F 35.4 °F 94% 29.90 in 4.0 mi South 10.4 mph - 0.02 in Rain Rain
11:54 PM 36.5 °F 29.7 °F 34.7 °F 93% 29.89 in 4.0 mi South 9.2 mph 18.4 mph 0.02 in Rain Light Rain